createdAt,value
2017-03-17T00:00:16.945Z,0
2017-03-17T00:01:26.988Z,0
2017-03-17T00:02:37.343Z,0
2017-03-17T00:03:47.700Z,0
2017-03-17T00:04:58.059Z,0
2017-03-17T00:06:08.392Z,0
2017-03-17T00:07:18.726Z,0
2017-03-17T00:08:28.441Z,0
2017-03-17T00:09:38.759Z,0
2017-03-17T00:10:49.099Z,0
2017-03-17T00:11:59.142Z,0
2017-03-17T00:13:09.517Z,0
2017-03-17T00:14:19.855Z,0
2017-03-17T00:15:30.213Z,0
2017-03-17T00:16:40.547Z,0
2017-03-17T00:17:50.867Z,0
2017-03-17T00:19:01.216Z,0
2017-03-17T00:20:11.553Z,0
2017-03-17T00:21:21.883Z,0
2017-03-17T00:22:31.920Z,0
2017-03-17T00:23:41.980Z,0
2017-03-17T00:24:52.310Z,0
2017-03-17T00:26:02.336Z,0
2017-03-17T00:27:12.669Z,0
2017-03-17T00:28:22.748Z,0
2017-03-17T00:29:33.075Z,0
2017-03-17T00:30:43.415Z,0
2017-03-17T00:31:53.751Z,0
2017-03-17T00:33:04.096Z,0
2017-03-17T00:34:14.426Z,0
2017-03-17T00:35:24.775Z,0
2017-03-17T00:36:34.793Z,0
2017-03-17T00:37:45.154Z,0
2017-03-17T00:38:54.865Z,0
2017-03-17T00:40:05.194Z,0
2017-03-17T00:41:15.523Z,0
2017-03-17T00:42:25.851Z,0
2017-03-17T00:43:36.188Z,0
2017-03-17T00:44:46.533Z,0
2017-03-17T00:45:56.866Z,0
2017-03-17T00:47:06.892Z,0
2017-03-17T00:48:16.918Z,0
2017-03-17T00:49:27.241Z,0
2017-03-17T00:50:37.607Z,0
2017-03-17T00:51:47.657Z,0
2017-03-17T00:52:57.988Z,0
2017-03-17T00:54:08.017Z,0
2017-03-17T00:55:18.354Z,0
2017-03-17T00:56:28.380Z,0
2017-03-17T00:57:38.714Z,0
2017-03-17T00:58:49.064Z,0
2017-03-17T00:59:59.397Z,0
2017-03-17T01:01:09.117Z,0
2017-03-17T01:02:19.458Z,0
2017-03-17T01:03:29.803Z,0
2017-03-17T01:04:39.818Z,0
2017-03-17T01:05:50.161Z,0
2017-03-17T01:07:00.498Z,0
2017-03-17T01:08:10.832Z,0
2017-03-17T01:09:21.191Z,0
2017-03-17T01:10:31.207Z,0
2017-03-17T01:11:41.220Z,0
2017-03-17T01:12:51.551Z,0
2017-03-17T01:14:01.581Z,0
2017-03-17T01:15:11.906Z,0
2017-03-17T01:16:22.232Z,0
2017-03-17T01:17:32.562Z,0
2017-03-17T01:18:42.899Z,0
2017-03-17T01:19:53.241Z,0
2017-03-17T01:21:03.251Z,0
2017-03-17T01:22:13.581Z,0
2017-03-17T01:23:23.906Z,0
2017-03-17T01:24:33.956Z,0
2017-03-17T01:25:44.296Z,0
2017-03-17T01:26:54.637Z,0
2017-03-17T01:28:04.663Z,0
2017-03-17T01:29:15.010Z,0
2017-03-17T01:30:25.334Z,0
2017-03-17T01:31:35.358Z,0
2017-03-17T01:32:45.682Z,0
2017-03-17T01:33:55.718Z,0
2017-03-17T01:35:06.053Z,0
2017-03-17T01:36:16.381Z,0
2017-03-17T01:37:26.405Z,0
2017-03-17T01:38:36.744Z,0
2017-03-17T01:39:47.101Z,0
2017-03-17T01:40:57.127Z,0
2017-03-17T01:42:07.158Z,0
2017-03-17T01:43:17.502Z,0
2017-03-17T01:44:27.832Z,0
2017-03-17T01:45:38.144Z,0
2017-03-17T01:46:48.475Z,0
2017-03-17T01:47:58.816Z,0
2017-03-17T01:49:08.830Z,0
2017-03-17T01:50:19.159Z,0
2017-03-17T01:51:28.887Z,0
2017-03-17T01:52:39.217Z,0
2017-03-17T01:53:49.261Z,0
2017-03-17T01:54:59.291Z,0
2017-03-17T01:56:09.618Z,0
2017-03-17T01:57:19.951Z,0
2017-03-17T01:58:29.989Z,0
2017-03-17T01:59:40.340Z,0
2017-03-17T02:00:50.695Z,0
2017-03-17T02:02:00.698Z,0
2017-03-17T02:03:10.710Z,0
2017-03-17T02:04:21.051Z,0
2017-03-17T02:05:31.373Z,0
2017-03-17T02:06:41.696Z,0
2017-03-17T02:07:51.710Z,0
2017-03-17T02:09:01.756Z,0
2017-03-17T02:10:11.798Z,0
2017-03-17T02:11:22.140Z,0
2017-03-17T02:12:32.177Z,0
2017-03-17T02:13:42.194Z,0
2017-03-17T02:14:52.213Z,0
2017-03-17T02:16:02.225Z,0
2017-03-17T02:17:12.236Z,0
2017-03-17T02:18:22.562Z,0
2017-03-17T02:19:32.891Z,0
2017-03-17T02:20:43.227Z,0
2017-03-17T02:21:53.568Z,0
2017-03-17T02:23:03.894Z,0
2017-03-17T02:24:14.236Z,0
2017-03-17T02:25:24.561Z,0
2017-03-17T02:26:34.899Z,0
2017-03-17T02:27:44.924Z,0
2017-03-17T02:28:55.256Z,0
2017-03-17T02:30:05.283Z,0
2017-03-17T02:31:15.610Z,0
2017-03-17T02:32:25.006Z,0
2017-03-17T02:33:35.351Z,0
2017-03-17T02:34:45.672Z,0
2017-03-17T02:35:56.002Z,0
2017-03-17T02:37:06.333Z,0
2017-03-17T02:38:16.354Z,0
2017-03-17T02:39:26.696Z,0
2017-03-17T02:40:37.063Z,0
2017-03-17T02:41:47.072Z,0
2017-03-17T02:42:57.409Z,0
2017-03-17T02:44:07.431Z,0
2017-03-17T02:45:17.760Z,0
2017-03-17T02:46:27.758Z,0
2017-03-17T02:47:37.773Z,0
2017-03-17T02:48:48.112Z,0
2017-03-17T02:49:58.147Z,0
2017-03-17T02:51:08.512Z,0
2017-03-17T02:52:18.825Z,0
2017-03-17T02:53:29.159Z,0
2017-03-17T02:54:39.503Z,0
2017-03-17T02:55:49.841Z,0
2017-03-17T02:57:00.169Z,0
2017-03-17T02:58:10.496Z,0
2017-03-17T02:59:20.842Z,0
2017-03-17T03:00:31.172Z,0
2017-03-17T03:01:41.734Z,0
2017-03-17T03:32:46.099Z,0
2017-03-17T03:33:56.117Z,0
2017-03-17T03:35:06.125Z,0
2017-03-17T03:36:16.455Z,0
2017-03-17T03:37:26.475Z,0
2017-03-17T03:38:36.809Z,0
2017-03-17T03:39:47.173Z,0
2017-03-17T03:40:57.500Z,0
2017-03-17T03:42:07.825Z,0
2017-03-17T03:43:18.172Z,0
2017-03-17T03:44:28.497Z,0
2017-03-17T03:45:38.199Z,0
2017-03-17T03:46:48.215Z,0
2017-03-17T03:47:58.237Z,0
2017-03-17T03:49:08.568Z,0
2017-03-17T03:50:18.905Z,0
2017-03-17T03:51:28.599Z,0
2017-03-17T03:52:38.946Z,0
2017-03-17T03:53:49.507Z,0
2017-03-17T03:54:59.837Z,0
2017-03-17T03:56:09.845Z,0
2017-03-17T03:57:19.856Z,0
2017-03-17T03:58:30.202Z,0
2017-03-17T03:59:40.529Z,0
2017-03-17T04:00:50.852Z,0
2017-03-17T04:02:01.181Z,0
2017-03-17T04:03:11.525Z,0
2017-03-17T04:04:21.865Z,0
2017-03-17T04:05:31.893Z,0
2017-03-17T04:06:42.228Z,0
2017-03-17T04:07:52.264Z,0
2017-03-17T04:09:02.601Z,0
2017-03-17T04:10:12.928Z,0
2017-03-17T04:11:23.251Z,0
2017-03-17T04:12:33.591Z,0
2017-03-17T04:13:43.921Z,0
2017-03-17T04:14:54.247Z,0
2017-03-17T04:16:04.563Z,0
2017-03-17T04:17:14.905Z,0
2017-03-17T04:18:24.933Z,0
2017-03-17T04:19:34.646Z,0
2017-03-17T04:20:44.978Z,0
2017-03-17T04:21:55.311Z,0
2017-03-17T04:23:05.647Z,0
2017-03-17T04:24:15.974Z,0
2017-03-17T04:25:25.987Z,0
2017-03-17T04:26:36.000Z,0
2017-03-17T04:27:46.342Z,0
2017-03-17T04:28:56.362Z,0
2017-03-17T04:30:06.730Z,0
2017-03-17T04:31:17.055Z,0
2017-03-17T04:32:27.381Z,0
2017-03-17T04:33:37.729Z,0
2017-03-17T04:34:48.077Z,0
2017-03-17T04:35:58.106Z,0
2017-03-17T04:37:08.435Z,0
2017-03-17T04:38:18.467Z,0
2017-03-17T04:39:28.476Z,0
2017-03-17T04:40:38.496Z,0
2017-03-17T04:41:48.826Z,0
2017-03-17T04:42:59.151Z,0
2017-03-17T04:44:09.181Z,0
2017-03-17T04:45:19.516Z,0
2017-03-17T04:46:29.551Z,0
2017-03-17T04:47:39.878Z,0
2017-03-17T04:48:50.210Z,0
2017-03-17T04:50:00.239Z,0
2017-03-17T04:51:09.955Z,0
2017-03-17T04:52:19.966Z,0
2017-03-17T04:53:30.311Z,0
2017-03-17T04:54:40.630Z,0
2017-03-17T04:55:50.971Z,0
2017-03-17T04:57:00.986Z,0
2017-03-17T04:58:11.313Z,0
2017-03-17T04:59:21.649Z,0
2017-03-17T05:00:31.984Z,5
2017-03-17T05:01:42.003Z,5
2017-03-17T05:02:52.348Z,5
2017-03-17T05:04:02.936Z,5
2017-03-17T05:05:13.244Z,5
2017-03-17T05:06:23.568Z,5
2017-03-17T05:07:33.598Z,5
2017-03-17T05:08:43.607Z,10
2017-03-17T05:09:53.932Z,10
2017-03-17T05:11:03.938Z,10
2017-03-17T05:12:14.269Z,10
2017-03-17T05:13:24.637Z,15
2017-03-17T05:14:34.958Z,15
2017-03-17T05:15:44.999Z,15
2017-03-17T05:16:55.019Z,20
2017-03-17T05:18:05.362Z,20
2017-03-17T05:19:15.695Z,20
2017-03-17T05:20:26.020Z,25
2017-03-17T05:21:36.038Z,25
2017-03-17T05:22:46.403Z,25
2017-03-17T05:23:56.730Z,30
2017-03-17T05:25:06.750Z,30
2017-03-17T05:26:17.077Z,30
2017-03-17T05:27:27.412Z,35
2017-03-17T05:28:37.734Z,35
2017-03-17T05:29:47.752Z,35
2017-03-17T05:30:57.772Z,40
2017-03-17T05:32:08.105Z,40
2017-03-17T05:33:18.366Z,40
2017-03-17T05:34:28.402Z,40
2017-03-17T05:35:38.740Z,40
2017-03-17T05:36:49.071Z,40
2017-03-17T05:37:59.419Z,40
2017-03-17T05:39:09.768Z,45
2017-03-17T05:40:20.095Z,45
2017-03-17T05:41:30.429Z,45
2017-03-17T05:42:40.145Z,45
2017-03-17T05:43:50.175Z,50
2017-03-17T05:45:00.505Z,50
2017-03-17T05:46:10.844Z,50
2017-03-17T05:47:21.167Z,55
2017-03-17T05:48:31.488Z,55
2017-03-17T05:49:41.825Z,55
2017-03-17T05:50:51.847Z,60
2017-03-17T05:52:01.868Z,60
2017-03-17T05:53:11.882Z,60
2017-03-17T05:54:22.226Z,65
2017-03-17T05:55:32.568Z,65
2017-03-17T05:56:42.900Z,65
2017-03-17T05:57:53.266Z,70
2017-03-17T05:59:03.304Z,70
2017-03-17T06:00:13.655Z,70
2017-03-17T06:01:24.003Z,75
2017-03-17T06:02:34.355Z,75
2017-03-17T06:03:44.702Z,75
2017-03-17T06:04:55.047Z,80
2017-03-17T06:06:05.076Z,80
2017-03-17T06:07:15.405Z,80
2017-03-17T06:08:25.746Z,85
2017-03-17T06:09:36.098Z,85
2017-03-17T06:10:45.831Z,85
2017-03-17T06:11:55.860Z,85
2017-03-17T06:13:05.916Z,90
2017-03-17T06:14:15.661Z,90
2017-03-17T06:15:26.014Z,90
2017-03-17T06:16:36.351Z,95
2017-03-17T06:17:46.730Z,95
2017-03-17T06:18:57.091Z,95
2017-03-17T06:20:07.429Z,95
2017-03-17T06:21:17.794Z,95
2017-03-17T06:22:28.130Z,95
2017-03-17T06:23:38.164Z,95
2017-03-17T06:24:48.502Z,95
2017-03-17T06:25:58.835Z,100
2017-03-17T06:27:08.860Z,100
2017-03-17T06:28:18.878Z,100
2017-03-17T06:29:29.193Z,100
2017-03-17T06:30:39.229Z,105
2017-03-17T06:31:49.562Z,105
2017-03-17T06:32:59.905Z,105
2017-03-17T06:34:10.244Z,105
2017-03-17T06:35:20.263Z,105
2017-03-17T06:36:30.279Z,105
2017-03-17T06:37:40.327Z,105
2017-03-17T06:38:50.658Z,110
2017-03-17T06:40:00.689Z,110
2017-03-17T06:41:11.029Z,110
2017-03-17T06:42:21.356Z,115
2017-03-17T06:43:31.698Z,115
2017-03-17T06:44:42.036Z,115
2017-03-17T06:45:52.081Z,115
2017-03-17T06:47:02.413Z,115
2017-03-17T06:48:12.436Z,120
2017-03-17T06:49:22.783Z,120
2017-03-17T06:50:33.111Z,120
2017-03-17T06:51:43.430Z,120
2017-03-17T06:52:53.772Z,120
2017-03-17T06:54:03.785Z,125
2017-03-17T06:55:14.119Z,125
2017-03-17T06:56:24.457Z,125
2017-03-17T06:57:34.810Z,125
2017-03-17T06:58:45.165Z,125
2017-03-17T06:59:55.188Z,125
2017-03-17T07:01:05.214Z,125
2017-03-17T07:02:15.549Z,130
2017-03-17T07:03:25.889Z,125
2017-03-17T07:04:36.269Z,130
2017-03-17T07:05:46.290Z,130
2017-03-17T07:06:56.638Z,130
2017-03-17T07:08:06.971Z,130
2017-03-17T07:09:16.991Z,130
2017-03-17T07:10:27.350Z,130
2017-03-17T07:11:37.375Z,130
2017-03-17T07:12:47.722Z,135
2017-03-17T07:13:57.748Z,135
2017-03-17T07:15:07.769Z,135
2017-03-17T07:16:18.095Z,140
2017-03-17T07:17:28.133Z,140
2017-03-17T07:18:38.165Z,140
2017-03-17T07:19:48.506Z,140
2017-03-17T07:20:58.867Z,145
2017-03-17T07:22:09.230Z,145
2017-03-17T07:23:19.261Z,145
2017-03-17T07:24:28.992Z,145
2017-03-17T07:25:39.354Z,145
2017-03-17T07:26:49.672Z,145
2017-03-17T07:28:00.029Z,145
2017-03-17T07:29:10.355Z,145
2017-03-17T07:30:20.397Z,145
2017-03-17T07:31:30.419Z,150
2017-03-17T07:32:59.664Z,150
2017-03-17T07:34:10.002Z,150
2017-03-17T07:35:20.019Z,155
2017-03-17T07:36:30.353Z,150
2017-03-17T07:37:40.688Z,155
2017-03-17T07:38:51.035Z,155
2017-03-17T07:40:01.380Z,160
2017-03-17T07:41:11.423Z,155
2017-03-17T07:42:21.744Z,155
2017-03-17T07:43:31.727Z,155
2017-03-17T07:44:42.247Z,155
2017-03-17T07:45:52.530Z,155
2017-03-17T07:47:02.795Z,155
2017-03-17T07:48:13.074Z,160
2017-03-17T07:49:22.728Z,165
2017-03-17T07:50:33.000Z,170
2017-03-17T07:51:42.682Z,165
2017-03-17T07:52:52.956Z,170
2017-03-17T07:54:03.233Z,165
2017-03-17T07:55:13.534Z,165
2017-03-17T07:56:23.501Z,170
2017-03-17T07:57:33.805Z,170
2017-03-17T07:58:44.072Z,170
2017-03-17T07:59:54.016Z,170
2017-03-17T08:01:03.984Z,170
2017-03-17T08:02:14.258Z,175
2017-03-17T08:03:24.221Z,175
2017-03-17T08:04:34.499Z,175
2017-03-17T08:05:44.773Z,175
2017-03-17T08:06:55.051Z,175
2017-03-17T08:08:04.716Z,180
2017-03-17T08:09:14.993Z,180
2017-03-17T08:10:25.289Z,180
2017-03-17T08:11:34.970Z,180
2017-03-17T08:12:44.948Z,180
2017-03-17T08:13:55.235Z,180
2017-03-17T08:15:05.511Z,180
2017-03-17T08:16:15.475Z,185
2017-03-17T08:17:25.435Z,185
2017-03-17T08:18:35.699Z,185
2017-03-17T08:19:45.960Z,185
2017-03-17T08:20:56.227Z,190
2017-03-17T08:22:06.494Z,185
2017-03-17T08:23:16.476Z,185
2017-03-17T08:24:26.750Z,185
2017-03-17T08:25:37.088Z,185
2017-03-17T08:26:47.363Z,190
2017-03-17T08:27:57.345Z,190
2017-03-17T08:29:07.301Z,190
2017-03-17T08:30:17.580Z,190
2017-03-17T08:31:27.857Z,190
2017-03-17T08:32:37.821Z,195
2017-03-17T08:33:48.114Z,190
2017-03-17T08:34:58.386Z,195
2017-03-17T08:36:08.662Z,195
2017-03-17T08:37:18.628Z,200
2017-03-17T08:38:28.933Z,195
2017-03-17T08:39:39.210Z,195
2017-03-17T08:40:49.501Z,195
2017-03-17T08:41:59.774Z,195
2017-03-17T08:43:10.075Z,205
2017-03-17T08:44:20.367Z,200
2017-03-17T08:45:30.641Z,200
2017-03-17T08:46:40.622Z,200
2017-03-17T08:47:50.914Z,205
2017-03-17T08:49:01.202Z,210
2017-03-17T08:50:10.874Z,210
2017-03-17T08:51:20.544Z,210
2017-03-17T08:52:30.825Z,210
2017-03-17T08:53:41.094Z,205
2017-03-17T08:54:51.360Z,215
2017-03-17T08:56:01.661Z,210
2017-03-17T08:57:11.934Z,210
2017-03-17T08:58:21.885Z,210
2017-03-17T08:59:32.166Z,210
2017-03-17T09:00:42.152Z,210
2017-03-17T09:01:52.114Z,210
2017-03-17T09:03:02.396Z,210
2017-03-17T09:04:12.081Z,215
2017-03-17T09:05:22.369Z,215
2017-03-17T09:06:32.024Z,215
2017-03-17T09:07:42.012Z,215
2017-03-17T09:08:51.980Z,215
2017-03-17T09:10:02.272Z,215
2017-03-17T09:11:12.540Z,215
2017-03-17T09:12:22.496Z,215
2017-03-17T09:13:32.686Z,215
2017-03-17T09:14:42.947Z,220
2017-03-17T09:15:53.220Z,220
2017-03-17T09:17:03.485Z,220
2017-03-17T09:18:13.476Z,220
2017-03-17T09:19:23.771Z,220
2017-03-17T09:20:33.448Z,220
2017-03-17T09:21:43.730Z,220
2017-03-17T09:22:54.000Z,225
2017-03-17T09:24:03.987Z,225
2017-03-17T09:25:14.274Z,225
2017-03-17T09:26:24.551Z,225
2017-03-17T09:27:34.835Z,225
2017-03-17T09:28:45.131Z,225
2017-03-17T09:29:55.431Z,225
2017-03-17T09:31:05.719Z,230
2017-03-17T09:32:15.942Z,225
2017-03-17T09:33:25.910Z,230
2017-03-17T09:34:36.197Z,230
2017-03-17T09:35:45.860Z,230
2017-03-17T09:36:56.126Z,230
2017-03-17T09:38:06.123Z,230
2017-03-17T09:39:16.398Z,235
2017-03-17T09:40:26.676Z,235
2017-03-17T09:41:36.953Z,240
2017-03-17T09:42:46.605Z,235
2017-03-17T09:43:56.867Z,240
2017-03-17T09:45:06.530Z,240
2017-03-17T09:46:16.499Z,240
2017-03-17T09:47:26.455Z,225
2017-03-17T09:48:36.728Z,230
2017-03-17T09:49:46.999Z,240
2017-03-17T09:50:57.271Z,240
2017-03-17T09:52:07.570Z,240
2017-03-17T09:53:17.857Z,245
2017-03-17T09:54:28.146Z,240
2017-03-17T09:55:38.416Z,245
2017-03-17T09:56:48.686Z,245
2017-03-17T09:57:58.656Z,240
2017-03-17T09:59:08.630Z,250
2017-03-17T10:00:18.606Z,245
2017-03-17T10:01:28.567Z,245
2017-03-17T10:02:38.878Z,250
2017-03-17T10:03:49.161Z,250
2017-03-17T10:04:59.138Z,250
2017-03-17T10:06:09.103Z,250
2017-03-17T10:07:19.085Z,245
2017-03-17T10:08:29.057Z,245
2017-03-17T10:09:39.029Z,245
2017-03-17T10:10:49.311Z,245
2017-03-17T10:11:59.581Z,245
2017-03-17T10:13:09.552Z,250
2017-03-17T10:14:19.837Z,250
2017-03-17T10:15:30.112Z,250
2017-03-17T10:16:39.782Z,240
2017-03-17T10:17:50.076Z,250
2017-03-17T10:19:00.038Z,250
2017-03-17T10:20:10.015Z,250
2017-03-17T10:21:20.300Z,255
2017-03-17T10:22:30.601Z,245
2017-03-17T10:23:40.895Z,250
2017-03-17T10:24:50.864Z,250
2017-03-17T10:26:01.147Z,250
2017-03-17T10:27:11.455Z,255
2017-03-17T10:28:21.451Z,255
2017-03-17T10:29:31.724Z,255
2017-03-17T10:30:42.019Z,255
2017-03-17T10:31:52.284Z,255
2017-03-17T10:33:02.247Z,255
2017-03-17T10:34:12.547Z,255
2017-03-17T10:35:22.523Z,255
2017-03-17T10:36:32.485Z,255
2017-03-17T10:37:42.746Z,255
2017-03-17T10:38:53.034Z,255
2017-03-17T10:40:03.315Z,255
2017-03-17T10:41:13.606Z,255
2017-03-17T10:42:23.909Z,255
2017-03-17T10:43:33.878Z,255
2017-03-17T10:44:43.841Z,255
2017-03-17T10:45:54.109Z,255
2017-03-17T10:47:04.377Z,255
2017-03-17T10:48:14.652Z,255
2017-03-17T10:49:24.925Z,255
2017-03-17T10:50:35.194Z,255
2017-03-17T10:51:45.203Z,260
2017-03-17T10:52:54.869Z,260
2017-03-17T10:54:04.559Z,260
2017-03-17T10:55:14.844Z,260
2017-03-17T10:56:24.826Z,260
2017-03-17T10:57:34.802Z,260
2017-03-17T10:58:45.082Z,260
2017-03-17T10:59:55.378Z,260
2017-03-17T11:01:05.653Z,260
2017-03-17T11:02:15.956Z,265
2017-03-17T11:03:25.949Z,265
2017-03-17T11:04:36.229Z,260
2017-03-17T11:05:46.515Z,265
2017-03-17T11:06:56.479Z,265
2017-03-17T11:08:06.774Z,265
2017-03-17T11:09:17.064Z,265
2017-03-17T11:10:27.028Z,265
2017-03-17T11:11:36.996Z,270
2017-03-17T11:12:47.282Z,270
2017-03-17T11:13:57.575Z,265
2017-03-17T11:15:07.858Z,270
2017-03-17T11:16:18.134Z,275
2017-03-17T11:17:27.781Z,270
2017-03-17T11:18:37.761Z,265
2017-03-17T11:19:48.048Z,260
2017-03-17T11:20:58.310Z,260
2017-03-17T11:22:08.280Z,250
2017-03-17T11:23:18.564Z,255
2017-03-17T11:24:28.853Z,260
2017-03-17T11:25:38.520Z,275
2017-03-17T11:26:48.784Z,275
2017-03-17T11:27:59.055Z,275
2017-03-17T11:29:09.355Z,275
2017-03-17T11:30:19.631Z,270
2017-03-17T11:31:29.920Z,250
2017-03-17T11:32:40.210Z,250
2017-03-17T11:33:50.197Z,245
2017-03-17T11:35:00.484Z,265
2017-03-17T11:36:10.771Z,265
2017-03-17T11:37:21.102Z,245
2017-03-17T11:38:31.070Z,245
2017-03-17T11:39:41.336Z,250
2017-03-17T11:40:51.312Z,250
2017-03-17T11:42:01.297Z,255
2017-03-17T11:43:11.595Z,250
2017-03-17T11:44:21.865Z,270
2017-03-17T11:45:32.143Z,275
2017-03-17T11:46:42.106Z,270
2017-03-17T11:47:52.396Z,280
2017-03-17T11:49:02.701Z,280
2017-03-17T11:50:13.011Z,270
2017-03-17T11:51:23.285Z,270
2017-03-17T11:52:33.606Z,225
2017-03-17T11:53:43.589Z,210
2017-03-17T11:54:53.622Z,225
2017-03-17T11:56:04.153Z,230
2017-03-17T11:57:14.473Z,245
2017-03-17T11:58:24.770Z,260
2017-03-17T11:59:35.055Z,285
2017-03-17T12:00:45.385Z,290
2017-03-17T12:01:55.044Z,270
2017-03-17T12:03:05.020Z,260
2017-03-17T12:04:15.336Z,265
2017-03-17T12:05:25.613Z,270
2017-03-17T12:06:35.909Z,250
2017-03-17T12:07:46.183Z,280
2017-03-17T12:08:56.152Z,285
2017-03-17T12:10:05.816Z,285
2017-03-17T12:11:16.109Z,285
2017-03-17T12:12:26.115Z,285
2017-03-17T12:13:36.404Z,240
2017-03-17T12:14:46.379Z,290
2017-03-17T12:15:56.671Z,280
2017-03-17T12:17:06.951Z,290
2017-03-17T12:18:17.224Z,295
2017-03-17T12:19:27.502Z,285
2017-03-17T12:20:37.776Z,270
2017-03-17T12:21:48.063Z,280
2017-03-17T12:22:58.362Z,280
2017-03-17T12:24:08.647Z,295
2017-03-17T12:25:18.932Z,300
2017-03-17T12:26:29.219Z,295
2017-03-17T12:27:39.495Z,295
2017-03-17T12:28:49.476Z,295
2017-03-17T12:29:59.758Z,295
2017-03-17T12:31:10.048Z,300
2017-03-17T12:32:20.349Z,295
2017-03-17T12:33:30.668Z,285
2017-03-17T12:34:40.985Z,290
2017-03-17T12:35:51.257Z,290
2017-03-17T12:37:01.531Z,285
2017-03-17T12:38:11.817Z,285
2017-03-17T12:39:22.089Z,255
2017-03-17T12:40:32.382Z,210
2017-03-17T12:41:42.662Z,285
2017-03-17T12:42:52.940Z,295
2017-03-17T12:44:02.901Z,285
2017-03-17T12:45:13.193Z,235
2017-03-17T12:46:23.470Z,170
2017-03-17T12:47:33.746Z,160
2017-03-17T12:48:43.737Z,150
2017-03-17T12:49:54.015Z,145
2017-03-17T12:51:03.984Z,145
2017-03-17T12:52:14.263Z,145
2017-03-17T12:53:24.545Z,155
2017-03-17T12:54:34.833Z,155
2017-03-17T12:55:45.097Z,165
2017-03-17T12:56:55.381Z,255
2017-03-17T12:58:05.665Z,275
2017-03-17T12:59:15.634Z,240
2017-03-17T13:00:25.909Z,295
2017-03-17T13:01:36.204Z,290
2017-03-17T13:02:46.497Z,295
2017-03-17T13:03:56.791Z,300
2017-03-17T13:05:06.790Z,230
2017-03-17T13:06:17.066Z,300
2017-03-17T13:07:27.050Z,295
2017-03-17T13:08:37.363Z,295
2017-03-17T13:09:47.350Z,295
2017-03-17T13:10:57.635Z,285
2017-03-17T13:12:07.609Z,275
2017-03-17T13:13:17.896Z,270
2017-03-17T13:14:27.874Z,280
2017-03-17T13:15:37.246Z,285
2017-03-17T13:16:47.534Z,260
2017-03-17T13:17:57.833Z,280
2017-03-17T13:19:08.167Z,280
2017-03-17T13:20:18.454Z,280
2017-03-17T13:21:28.733Z,310
2017-03-17T13:22:39.022Z,275
2017-03-17T13:23:48.742Z,255
2017-03-17T13:24:58.745Z,270
2017-03-17T13:26:09.044Z,280
2017-03-17T13:27:19.320Z,285
2017-03-17T13:28:29.846Z,260
2017-03-17T13:29:39.827Z,245
2017-03-17T13:30:49.814Z,260
2017-03-17T13:31:59.804Z,240
2017-03-17T13:33:10.099Z,235
2017-03-17T13:34:20.079Z,230
2017-03-17T13:35:30.376Z,220
2017-03-17T13:36:40.058Z,220
2017-03-17T13:37:50.050Z,215
2017-03-17T13:39:00.345Z,210
2017-03-17T13:40:10.627Z,205
2017-03-17T13:41:20.593Z,210
2017-03-17T13:42:30.889Z,200
2017-03-17T13:43:40.889Z,200
2017-03-17T13:44:51.181Z,200
2017-03-17T13:46:01.166Z,190
2017-03-17T13:47:11.439Z,190
2017-03-17T13:48:21.730Z,185
2017-03-17T13:49:32.019Z,180
2017-03-17T13:50:41.974Z,175
2017-03-17T13:51:51.946Z,170
2017-03-17T13:53:01.606Z,165
2017-03-17T13:54:11.894Z,165
2017-03-17T13:55:21.877Z,160
2017-03-17T13:56:32.170Z,155
2017-03-17T13:57:42.463Z,150
2017-03-17T13:58:52.756Z,150
2017-03-17T14:00:03.055Z,145
2017-03-17T14:01:13.337Z,140
2017-03-17T14:02:23.620Z,140
2017-03-17T14:03:33.622Z,135
2017-03-17T14:04:43.287Z,135
2017-03-17T14:05:53.488Z,135
2017-03-17T14:07:03.473Z,130
2017-03-17T14:08:13.762Z,130
2017-03-17T14:09:24.111Z,130
2017-03-17T14:10:34.095Z,130
2017-03-17T14:11:44.070Z,130
2017-03-17T14:12:54.344Z,130
2017-03-17T14:14:04.618Z,130
2017-03-17T14:15:14.898Z,125
2017-03-17T14:16:25.187Z,125
2017-03-17T14:17:35.469Z,125
2017-03-17T14:18:45.440Z,125
2017-03-17T14:19:55.741Z,125
2017-03-17T14:21:06.052Z,125
2017-03-17T14:22:16.014Z,125
2017-03-17T14:23:26.311Z,125
2017-03-17T14:24:36.575Z,125
2017-03-17T14:25:46.871Z,130
2017-03-17T14:26:57.160Z,125
2017-03-17T14:28:07.136Z,120
2017-03-17T14:29:17.130Z,120
2017-03-17T14:30:27.093Z,120
2017-03-17T14:31:37.092Z,115
2017-03-17T14:32:47.076Z,115
2017-03-17T14:33:57.362Z,110
2017-03-17T14:35:07.339Z,110
2017-03-17T14:36:17.648Z,105
2017-03-17T14:37:27.930Z,110
2017-03-17T14:38:38.225Z,105
2017-03-17T14:39:48.518Z,105
2017-03-17T14:40:58.189Z,100
2017-03-17T14:42:08.459Z,95
2017-03-17T14:43:18.767Z,95
2017-03-17T14:44:28.747Z,95
2017-03-17T14:45:39.028Z,95
2017-03-17T14:46:48.994Z,95
2017-03-17T14:47:58.346Z,90
2017-03-17T14:49:08.314Z,90
2017-03-17T14:50:18.597Z,90
2017-03-17T14:51:28.591Z,85
2017-03-17T14:52:38.591Z,85
2017-03-17T14:53:48.576Z,85
2017-03-17T14:54:58.530Z,85
2017-03-17T14:56:08.733Z,80
2017-03-17T14:57:18.727Z,80
2017-03-17T14:58:29.010Z,75
2017-03-17T14:59:38.985Z,75
2017-03-17T15:00:49.252Z,70
2017-03-17T15:01:59.548Z,70
2017-03-17T15:03:09.865Z,70
2017-03-17T15:04:20.196Z,65
2017-03-17T15:05:30.479Z,65
2017-03-17T15:06:40.467Z,65
2017-03-17T15:07:50.800Z,65
2017-03-17T15:09:01.098Z,65
2017-03-17T15:10:11.082Z,65
2017-03-17T15:11:21.375Z,65
2017-03-17T15:12:31.657Z,65
2017-03-17T15:13:41.016Z,65
2017-03-17T15:14:51.307Z,65
2017-03-17T15:16:01.598Z,65
2017-03-17T15:17:11.566Z,65
2017-03-17T15:18:21.545Z,65
2017-03-17T15:19:31.519Z,65
2017-03-17T15:20:41.501Z,65
2017-03-17T15:21:51.798Z,65
2017-03-17T15:23:02.085Z,70
2017-03-17T15:24:12.369Z,70
2017-03-17T15:25:22.689Z,75
2017-03-17T15:26:32.957Z,75
2017-03-17T15:27:43.268Z,80
2017-03-17T15:28:53.561Z,80
2017-03-17T15:30:03.848Z,85
2017-03-17T15:31:14.121Z,85
2017-03-17T15:32:24.432Z,85
2017-03-17T15:33:34.725Z,85
2017-03-17T15:34:44.720Z,85
2017-03-17T15:35:54.711Z,85
2017-03-17T15:37:04.685Z,85
2017-03-17T15:38:14.996Z,85
2017-03-17T15:39:24.677Z,85
2017-03-17T15:40:34.964Z,85
2017-03-17T15:41:44.938Z,85
2017-03-17T15:42:55.288Z,85
2017-03-17T15:44:05.650Z,85
2017-03-17T15:45:16.015Z,85
2017-03-17T15:46:26.357Z,85
2017-03-17T15:47:36.704Z,85
2017-03-17T15:48:46.772Z,85
2017-03-17T15:49:57.165Z,85
2017-03-17T15:51:07.510Z,90
2017-03-17T15:52:17.561Z,85
2017-03-17T15:53:27.913Z,85
2017-03-17T15:54:38.286Z,90
2017-03-17T15:55:48.326Z,95
2017-03-17T15:56:58.369Z,100
2017-03-17T15:58:08.722Z,100
2017-03-17T15:59:19.071Z,100
2017-03-17T16:00:29.425Z,100
2017-03-17T16:01:39.762Z,100
2017-03-17T16:02:50.097Z,100
2017-03-17T16:04:00.448Z,95
2017-03-17T16:05:10.793Z,90
2017-03-17T16:06:21.134Z,85
2017-03-17T16:07:31.214Z,80
2017-03-17T16:08:41.556Z,80
2017-03-17T16:09:52.662Z,75
2017-03-17T16:11:03.564Z,70
2017-03-17T16:12:14.400Z,65
2017-03-17T16:13:24.839Z,55
2017-03-17T16:14:34.893Z,60
2017-03-17T16:15:45.273Z,55
2017-03-17T16:16:55.658Z,50
2017-03-17T16:18:05.741Z,50
2017-03-17T16:19:16.096Z,45
2017-03-17T16:20:26.148Z,45
2017-03-17T16:21:36.504Z,45
2017-03-17T16:22:46.870Z,40
2017-03-17T16:23:56.911Z,40
2017-03-17T16:25:06.975Z,35
2017-03-17T16:26:17.316Z,35
2017-03-17T16:27:27.046Z,35
2017-03-17T16:28:37.415Z,35
2017-03-17T16:29:47.149Z,30
2017-03-17T16:30:57.515Z,30
2017-03-17T16:32:07.883Z,30
2017-03-17T16:33:18.255Z,30
2017-03-17T16:34:28.608Z,30
2017-03-17T16:35:38.675Z,25
2017-03-17T16:36:49.031Z,25
2017-03-17T16:37:59.082Z,20
2017-03-17T16:39:09.458Z,20
2017-03-17T16:40:19.815Z,20
2017-03-17T16:41:30.165Z,20
2017-03-17T16:42:40.200Z,15
2017-03-17T16:43:50.547Z,15
2017-03-17T16:45:00.611Z,15
2017-03-17T16:46:10.659Z,15
2017-03-17T16:47:21.019Z,15
2017-03-17T16:48:31.375Z,10
2017-03-17T16:49:41.730Z,10
2017-03-17T16:50:52.087Z,10
2017-03-17T16:52:02.434Z,10
2017-03-17T16:53:11.844Z,10
2017-03-17T16:54:22.200Z,5
2017-03-17T16:55:32.565Z,5
2017-03-17T16:56:42.919Z,5
2017-03-17T16:57:53.275Z,5
2017-03-17T16:59:03.315Z,5
2017-03-17T17:00:13.659Z,5
2017-03-17T17:01:24.020Z,0
2017-03-17T17:02:34.049Z,0
2017-03-17T17:03:44.438Z,0